Valor — WDD8691 — position and weather

sailwx.info

Track history (hours):
 
Tides and Currents Weather Stations Pressure Air Temp Water Temp Dewpoint Dewpoint Depression Visibility Wind Speed Wind Dir Waves Ship Positions

Valor

Owner: Crowley Marine Services, Seattle, WA. More information available from US FCC via Universal Licensing System and Coast Guard Vessel Documentation Center.

Last reported at 2016-Jun-25 03:05 UTC. Time now 2016-Jun-25 05:13 UTC.
Position N 37°49' W 122°19'.

Length 8 m; draft 5.5 m.

Type: Tug. MMSI: 367301480.

Date/timePositionNaut miles runAvg speedWind from/ knotsBaromVisibWave heightAir tempDewpointWater temp
2016-Jun-25 03:05N 37°49' W 122°19'0 0.0
2016-Jun-25 02:33N 37°49' W 122°19'0 0.3
2016-Jun-25 01:33N 37°49' W 122°19'1 1.4
2016-Jun-25 00:33N 37°48' W 122°19'0 0.1
2016-Jun-24 23:33N 37°48' W 122°19'1 0.9
2016-Jun-24 22:21N 37°48' W 122°21'2 2.0
2016-Jun-24 21:33N 37°48' W 122°19'2 2.2
2016-Jun-24 20:32N 37°48' W 122°21'2 1.2
2016-Jun-24 18:34N 37°46' W 122°21'2 2.4
2016-Jun-24 17:34N 37°47' W 122°23'7 5.7
2016-Jun-24 16:21N 37°49' W 122°31'3 2.1
2016-Jun-24 15:07N 37°49' W 122°28'2 3.7
2016-Jun-24 14:34N 37°49' W 122°26'2 2.0
2016-Jun-24 13:32N 37°49' W 122°28'4 3.6
2016-Jun-24 12:34N 37°48' W 122°24'0 0.0
2016-Jun-24 11:34N 37°48' W 122°24'0 0.0
2016-Jun-24 10:34N 37°48' W 122°24'0 0.0
2016-Jun-24 09:33N 37°48' W 122°24'0 0.0
2016-Jun-24 08:34N 37°48' W 122°24'0 0.0
2016-Jun-24 07:34N 37°48' W 122°24'4 0.4
2016-Jun-23 22:11N 37°49' W 122°19'0 0.5
2016-Jun-23 21:25N 37°49' W 122°19'0 0.0
2016-Jun-23 19:05N 37°49' W 122°19'0 0.0
2016-Jun-23 18:22N 37°49' W 122°19'0 0.0
2016-Jun-23 17:33N 37°49' W 122°19'0 0.0
2016-Jun-23 16:31N 37°49' W 122°19'4 4.0
2016-Jun-23 15:33N 37°48' W 122°23'0 0.5
2016-Jun-23 14:33N 37°48' W 122°24'0 0.0
2016-Jun-23 13:34N 37°48' W 122°24'4 4.1
2016-Jun-23 12:34N 37°48' W 122°19'3 2.9
2016-Jun-23 11:33N 37°48' W 122°23'1 1.2
2016-Jun-23 10:34N 37°48' W 122°24'0 0.0
2016-Jun-23 09:34N 37°48' W 122°24'0 0.0
2016-Jun-23 08:34N 37°48' W 122°24'0 0.0
2016-Jun-23 07:34N 37°48' W 122°24'0 0.0
2016-Jun-23 05:34N 37°48' W 122°24'0 0.0
2016-Jun-23 04:34N 37°48' W 122°24'0 0.0
2016-Jun-23 03:33N 37°48' W 122°24'14 6.9
2016-Jun-23 01:33N 38°02' W 122°22'7 1.6
2016-Jun-22 21:23N 38°04' W 122°14'9 6.9
2016-Jun-22 20:05N 38°00' W 122°24'12 7.6
2016-Jun-22 18:31N 37°49' W 122°19'3 2.7
2016-Jun-22 17:33N 37°48' W 122°21'2 2.3
2016-Jun-22 16:33N 37°49' W 122°23'1110.0
2016-Jun-22 15:29N 37°60' W 122°25'13 9.9
2016-Jun-22 14:08N 38°02' W 122°08'0 0.2
2016-Jun-22 13:14N 38°02' W 122°08'2 0.9
2016-Jun-22 10:33N 38°03' W 122°11'4 4.0
2016-Jun-22 09:33N 38°03' W 122°16'0 0.1
2016-Jun-22 08:33N 38°04' W 122°16'7 6.3
2016-Jun-22 07:23N 38°00' W 122°24'10 9.7
2016-Jun-22 06:21N 37°50' W 122°22'3 4.0
2016-Jun-22 05:33N 37°49' W 122°19'0 0.0
2016-Jun-22 03:18N 37°49' W 122°19'0 0.0
2016-Jun-22 02:33N 37°49' W 122°19'0 0.0
2016-Jun-22 01:33N 37°49' W 122°19'2 1.6
2016-Jun-22 00:33N 37°48' W 122°19'1 0.5
2016-Jun-21 23:33N 37°48' W 122°18'3 1.4
2016-Jun-21 21:30N 37°48' W 122°22'1 1.2
2016-Jun-21 20:33N 37°48' W 122°21'14 6.9
2016-Jun-21 18:33N 38°02' W 122°21'5 4.9
2016-Jun-21 17:33N 38°03' W 122°15'0 0.0
2016-Jun-21 16:33N 38°03' W 122°15'0 0.0
2016-Jun-21 15:33N 38°03' W 122°15'0 0.0
2016-Jun-21 14:33N 38°03' W 122°15'0 0.0
2016-Jun-21 13:33N 38°03' W 122°15'0 0.0
2016-Jun-21 12:33N 38°03' W 122°15'0 0.0
2016-Jun-21 11:33N 38°03' W 122°15'0 0.0
2016-Jun-21 10:33N 38°03' W 122°15'0 0.0
2016-Jun-21 09:33N 38°03' W 122°15'0 0.0
2016-Jun-21 08:33N 38°03' W 122°15'0 0.0
2016-Jun-21 07:33N 38°03' W 122°15'0 0.0
2016-Jun-21 05:33N 38°03' W 122°15'0 0.0
2016-Jun-21 04:29N 38°03' W 122°15'0 0.0
2016-Jun-21 03:33N 38°03' W 122°15'0 0.0
2016-Jun-21 02:33N 38°03' W 122°15'0 0.0
2016-Jun-21 01:33N 38°03' W 122°15'0 0.0
2016-Jun-21 00:33N 38°03' W 122°15'0 0.0
2016-Jun-20 23:33N 38°03' W 122°15'0 0.0
2016-Jun-20 22:33N 38°03' W 122°15'0 0.0
2016-Jun-20 21:33N 38°03' W 122°15'0 0.0
2016-Jun-20 20:33N 38°03' W 122°15'0 0.0
2016-Jun-20 19:33N 38°03' W 122°15'0 0.0
2016-Jun-20 18:33N 38°03' W 122°15'0 0.2
2016-Jun-20 17:33N 38°04' W 122°14'1 0.5
2016-Jun-20 16:32N 38°04' W 122°15'5 0.7
2016-Jun-20 09:19N 38°02' W 122°09'4 0.3
2016-Jun-19 20:21N 38°04' W 122°13'9 8.8
2016-Jun-19 19:19N 38°00' W 122°24'8 8.2
2016-Jun-19 18:19N 37°52' W 122°27'5 6.4
2016-Jun-19 17:33N 37°49' W 122°31'4 3.8
2016-Jun-19 16:33N 37°51' W 122°27'12 0.8
2016-Jun-19 02:33N 38°02' W 122°22'5 1.8
2016-Jun-18 23:31N 38°03' W 122°16'1 0.9
2016-Jun-18 22:31N 38°03' W 122°15'0 0.0
2016-Jun-18 21:29N 38°03' W 122°15'0 0.0
2016-Jun-18 20:33N 38°03' W 122°15'6 2.7
2016-Jun-18 18:27N 38°02' W 122°08'5 4.7
2016-Jun-18 17:26N 38°04' W 122°14'9 7.7
2016-Jun-18 16:13N 38°00' W 122°25'8 8.9
2016-Jun-18 15:20N 37°53' W 122°25'7 8.9
2016-Jun-18 14:34N 37°46' W 122°22'2 2.3
2016-Jun-18 13:33N 37°44' W 122°21'5 4.9
2016-Jun-18 12:33N 37°48' W 122°24'0 0.0
2016-Jun-18 11:33N 37°48' W 122°24'4 4.3
2016-Jun-18 10:34N 37°49' W 122°19'0 0.0
2016-Jun-18 08:33N 37°49' W 122°19'0 0.0
2016-Jun-18 07:33N 37°49' W 122°19'0 0.0
2016-Jun-18 06:33N 37°49' W 122°19'0 0.0
2016-Jun-18 05:33N 37°49' W 122°19'1 0.3
2016-Jun-18 03:23N 37°49' W 122°19'1 1.2
2016-Jun-18 02:33N 37°48' W 122°19'1 1.2
2016-Jun-18 01:33N 37°49' W 122°20'0 0.1
2016-Jun-18 00:28N 37°49' W 122°20'2 1.8
2016-Jun-17 23:33N 37°48' W 122°18'0 0.1
2016-Jun-17 22:33N 37°48' W 122°18'1 0.6
2016-Jun-17 21:33N 37°48' W 122°19'2 1.4
2016-Jun-17 20:24N 37°49' W 122°19'0 0.0
2016-Jun-17 19:33N 37°49' W 122°19'3 2.6
2016-Jun-17 18:33N 37°50' W 122°22'11 8.5
2016-Jun-17 17:19N 38°00' W 122°24'9 9.2
2016-Jun-17 16:21N 38°04' W 122°14'1 0.1
2016-Jun-17 03:12N 38°03' W 122°15'0 0.0
2016-Jun-17 01:04N 38°03' W 122°15'8 0.8
2016-Jun-16 14:31N 38°01' W 122°24'6 2.8
2016-Jun-16 12:19N 37°55' W 122°22'2 0.6
2016-Jun-16 09:28N 37°54' W 122°24'8 8.5
2016-Jun-16 08:33N 38°02' W 122°21'3 0.2
2016-Jun-15 13:28N 38°00' W 122°24'  
Track history (hours):
 
Tides and Currents Weather Stations Pressure Air Temp Water Temp Dewpoint Dewpoint Depression Visibility Wind Speed Wind Dir Waves Ship Positions

Valor

Owner: Crowley Marine Services, Seattle, WA. More information available from US FCC via Universal Licensing System and Coast Guard Vessel Documentation Center.

Last reported at 2016-Jun-25 03:05 UTC. Time now 2016-Jun-25 05:13 UTC.
Position N 37°49' W 122°19'.

Length 8 m; draft 5.5 m.

Type: Tug. MMSI: 367301480.

Date/timePositionNaut miles runAvg speedWind from/ knotsBaromVisibWave heightAir tempDewpointWater temp
2016-Jun-25 03:05N 37°49' W 122°19'0 0.0
2016-Jun-25 02:33N 37°49' W 122°19'0 0.3
2016-Jun-25 01:33N 37°49' W 122°19'1 1.4
2016-Jun-25 00:33N 37°48' W 122°19'0 0.1
2016-Jun-24 23:33N 37°48' W 122°19'1 0.9
2016-Jun-24 22:21N 37°48' W 122°21'2 2.0
2016-Jun-24 21:33N 37°48' W 122°19'2 2.2
2016-Jun-24 20:32N 37°48' W 122°21'2 1.2
2016-Jun-24 18:34N 37°46' W 122°21'2 2.4
2016-Jun-24 17:34N 37°47' W 122°23'7 5.7
2016-Jun-24 16:21N 37°49' W 122°31'3 2.1
2016-Jun-24 15:07N 37°49' W 122°28'2 3.7
2016-Jun-24 14:34N 37°49' W 122°26'2 2.0
2016-Jun-24 13:32N 37°49' W 122°28'4 3.6
2016-Jun-24 12:34N 37°48' W 122°24'0 0.0
2016-Jun-24 11:34N 37°48' W 122°24'0 0.0
2016-Jun-24 10:34N 37°48' W 122°24'0 0.0
2016-Jun-24 09:33N 37°48' W 122°24'0 0.0
2016-Jun-24 08:34N 37°48' W 122°24'0 0.0
2016-Jun-24 07:34N 37°48' W 122°24'4 0.4
2016-Jun-23 22:11N 37°49' W 122°19'0 0.5
2016-Jun-23 21:25N 37°49' W 122°19'0 0.0
2016-Jun-23 19:05N 37°49' W 122°19'0 0.0
2016-Jun-23 18:22N 37°49' W 122°19'0 0.0
2016-Jun-23 17:33N 37°49' W 122°19'0 0.0
2016-Jun-23 16:31N 37°49' W 122°19'4 4.0
2016-Jun-23 15:33N 37°48' W 122°23'0 0.5
2016-Jun-23 14:33N 37°48' W 122°24'0 0.0
2016-Jun-23 13:34N 37°48' W 122°24'4 4.1
2016-Jun-23 12:34N 37°48' W 122°19'3 2.9
2016-Jun-23 11:33N 37°48' W 122°23'1 1.2
2016-Jun-23 10:34N 37°48' W 122°24'0 0.0
2016-Jun-23 09:34N 37°48' W 122°24'0 0.0
2016-Jun-23 08:34N 37°48' W 122°24'0 0.0
2016-Jun-23 07:34N 37°48' W 122°24'0 0.0
2016-Jun-23 05:34N 37°48' W 122°24'0 0.0
2016-Jun-23 04:34N 37°48' W 122°24'0 0.0
2016-Jun-23 03:33N 37°48' W 122°24'14 6.9
2016-Jun-23 01:33N 38°02' W 122°22'7 1.6
2016-Jun-22 21:23N 38°04' W 122°14'9 6.9
2016-Jun-22 20:05N 38°00' W 122°24'12 7.6
2016-Jun-22 18:31N 37°49' W 122°19'3 2.7
2016-Jun-22 17:33N 37°48' W 122°21'2 2.3
2016-Jun-22 16:33N 37°49' W 122°23'1110.0
2016-Jun-22 15:29N 37°60' W 122°25'13 9.9
2016-Jun-22 14:08N 38°02' W 122°08'0 0.2
2016-Jun-22 13:14N 38°02' W 122°08'2 0.9
2016-Jun-22 10:33N 38°03' W 122°11'4 4.0
2016-Jun-22 09:33N 38°03' W 122°16'0 0.1
2016-Jun-22 08:33N 38°04' W 122°16'7 6.3
2016-Jun-22 07:23N 38°00' W 122°24'10 9.7
2016-Jun-22 06:21N 37°50' W 122°22'3 4.0
2016-Jun-22 05:33N 37°49' W 122°19'0 0.0
2016-Jun-22 03:18N 37°49' W 122°19'0 0.0
2016-Jun-22 02:33N 37°49' W 122°19'0 0.0
2016-Jun-22 01:33N 37°49' W 122°19'2 1.6
2016-Jun-22 00:33N 37°48' W 122°19'1 0.5
2016-Jun-21 23:33N 37°48' W 122°18'3 1.4
2016-Jun-21 21:30N 37°48' W 122°22'1 1.2
2016-Jun-21 20:33N 37°48' W 122°21'14 6.9
2016-Jun-21 18:33N 38°02' W 122°21'5 4.9
2016-Jun-21 17:33N 38°03' W 122°15'0 0.0
2016-Jun-21 16:33N 38°03' W 122°15'0 0.0
2016-Jun-21 15:33N 38°03' W 122°15'0 0.0
2016-Jun-21 14:33N 38°03' W 122°15'0 0.0
2016-Jun-21 13:33N 38°03' W 122°15'0 0.0
2016-Jun-21 12:33N 38°03' W 122°15'0 0.0
2016-Jun-21 11:33N 38°03' W 122°15'0 0.0
2016-Jun-21 10:33N 38°03' W 122°15'0 0.0
2016-Jun-21 09:33N 38°03' W 122°15'0 0.0
2016-Jun-21 08:33N 38°03' W 122°15'0 0.0
2016-Jun-21 07:33N 38°03' W 122°15'0 0.0
2016-Jun-21 05:33N 38°03' W 122°15'0 0.0
2016-Jun-21 04:29N 38°03' W 122°15'0 0.0
2016-Jun-21 03:33N 38°03' W 122°15'0 0.0
2016-Jun-21 02:33N 38°03' W 122°15'0 0.0
2016-Jun-21 01:33N 38°03' W 122°15'0 0.0
2016-Jun-21 00:33N 38°03' W 122°15'0 0.0
2016-Jun-20 23:33N 38°03' W 122°15'0 0.0
2016-Jun-20 22:33N 38°03' W 122°15'0 0.0
2016-Jun-20 21:33N 38°03' W 122°15'0 0.0
2016-Jun-20 20:33N 38°03' W 122°15'0 0.0
2016-Jun-20 19:33N 38°03' W 122°15'0 0.0
2016-Jun-20 18:33N 38°03' W 122°15'0 0.2
2016-Jun-20 17:33N 38°04' W 122°14'1 0.5
2016-Jun-20 16:32N 38°04' W 122°15'5 0.7
2016-Jun-20 09:19N 38°02' W 122°09'4 0.3
2016-Jun-19 20:21N 38°04' W 122°13'9 8.8
2016-Jun-19 19:19N 38°00' W 122°24'8 8.2
2016-Jun-19 18:19N 37°52' W 122°27'5 6.4
2016-Jun-19 17:33N 37°49' W 122°31'4 3.8
2016-Jun-19 16:33N 37°51' W 122°27'12 0.8
2016-Jun-19 02:33N 38°02' W 122°22'5 1.8
2016-Jun-18 23:31N 38°03' W 122°16'1 0.9
2016-Jun-18 22:31N 38°03' W 122°15'0 0.0
2016-Jun-18 21:29N 38°03' W 122°15'0 0.0
2016-Jun-18 20:33N 38°03' W 122°15'6 2.7
2016-Jun-18 18:27N 38°02' W 122°08'5 4.7
2016-Jun-18 17:26N 38°04' W 122°14'9 7.7
2016-Jun-18 16:13N 38°00' W 122°25'8 8.9
2016-Jun-18 15:20N 37°53' W 122°25'7 8.9
2016-Jun-18 14:34N 37°46' W 122°22'2 2.3
2016-Jun-18 13:33N 37°44' W 122°21'5 4.9
2016-Jun-18 12:33N 37°48' W 122°24'0 0.0
2016-Jun-18 11:33N 37°48' W 122°24'4 4.3
2016-Jun-18 10:34N 37°49' W 122°19'0 0.0
2016-Jun-18 08:33N 37°49' W 122°19'0 0.0
2016-Jun-18 07:33N 37°49' W 122°19'0 0.0
2016-Jun-18 06:33N 37°49' W 122°19'0 0.0
2016-Jun-18 05:33N 37°49' W 122°19'1 0.3
2016-Jun-18 03:23N 37°49' W 122°19'1 1.2
2016-Jun-18 02:33N 37°48' W 122°19'1 1.2
2016-Jun-18 01:33N 37°49' W 122°20'0 0.1
2016-Jun-18 00:28N 37°49' W 122°20'2 1.8
2016-Jun-17 23:33N 37°48' W 122°18'0 0.1
2016-Jun-17 22:33N 37°48' W 122°18'1 0.6
2016-Jun-17 21:33N 37°48' W 122°19'2 1.4
2016-Jun-17 20:24N 37°49' W 122°19'0 0.0
2016-Jun-17 19:33N 37°49' W 122°19'3 2.6
2016-Jun-17 18:33N 37°50' W 122°22'11 8.5
2016-Jun-17 17:19N 38°00' W 122°24'9 9.2
2016-Jun-17 16:21N 38°04' W 122°14'1 0.1
2016-Jun-17 03:12N 38°03' W 122°15'0 0.0
2016-Jun-17 01:04N 38°03' W 122°15'8 0.8
2016-Jun-16 14:31N 38°01' W 122°24'6 2.8
2016-Jun-16 12:19N 37°55' W 122°22'2 0.6
2016-Jun-16 09:28N 37°54' W 122°24'8 8.5
2016-Jun-16 08:33N 38°02' W 122°21'3 0.2
2016-Jun-15 13:28N 38°00' W 122°24'  

Dump ship's entire track history